sensor_id;sensor_type;location;lat;lon;timestamp;temperature;humidity
1614;DHT22;800;48.824;9.346;2023-12-29T00:00:33;13.90;62.20
1614;DHT22;800;48.824;9.346;2023-12-29T00:02:59;13.80;62.00
1614;DHT22;800;48.824;9.346;2023-12-29T00:05:24;13.70;62.40
1614;DHT22;800;48.824;9.346;2023-12-29T00:07:50;13.80;62.70
1614;DHT22;800;48.824;9.346;2023-12-29T00:10:16;13.70;62.60
1614;DHT22;800;48.824;9.346;2023-12-29T00:12:41;13.60;63.20
1614;DHT22;800;48.824;9.346;2023-12-29T00:15:07;13.50;63.50
1614;DHT22;800;48.824;9.346;2023-12-29T00:17:33;13.60;63.50
1614;DHT22;800;48.824;9.346;2023-12-29T00:20:03;13.60;63.30
1614;DHT22;800;48.824;9.346;2023-12-29T00:22:29;13.60;63.50
1614;DHT22;800;48.824;9.346;2023-12-29T00:24:55;13.50;62.90
1614;DHT22;800;48.824;9.346;2023-12-29T00:27:20;13.60;62.70
1614;DHT22;800;48.824;9.346;2023-12-29T00:29:46;13.50;62.40
1614;DHT22;800;48.824;9.346;2023-12-29T00:32:12;13.40;62.50
1614;DHT22;800;48.824;9.346;2023-12-29T00:34:37;13.60;62.80
1614;DHT22;800;48.824;9.346;2023-12-29T00:37:03;13.60;62.20
1614;DHT22;800;48.824;9.346;2023-12-29T00:39:28;13.70;62.00
1614;DHT22;800;48.824;9.346;2023-12-29T00:41:56;13.70;61.80
1614;DHT22;800;48.824;9.346;2023-12-29T00:44:23;13.70;62.00
1614;DHT22;800;48.824;9.346;2023-12-29T00:46:49;13.50;61.10
1614;DHT22;800;48.824;9.346;2023-12-29T00:49:14;13.60;61.80
1614;DHT22;800;48.824;9.346;2023-12-29T00:51:40;13.60;61.80
1614;DHT22;800;48.824;9.346;2023-12-29T00:54:08;13.80;61.60
1614;DHT22;800;48.824;9.346;2023-12-29T00:56:34;13.80;61.20
1614;DHT22;800;48.824;9.346;2023-12-29T00:59:00;13.90;61.30
1614;DHT22;800;48.824;9.346;2023-12-29T01:01:25;13.80;61.40
1614;DHT22;800;48.824;9.346;2023-12-29T01:03:51;13.80;61.10
1614;DHT22;800;48.824;9.346;2023-12-29T01:06:20;13.90;61.30
1614;DHT22;800;48.824;9.346;2023-12-29T01:08:45;13.90;60.70
1614;DHT22;800;48.824;9.346;2023-12-29T01:11:11;13.80;60.20
1614;DHT22;800;48.824;9.346;2023-12-29T01:13:37;13.70;60.80
1614;DHT22;800;48.824;9.346;2023-12-29T01:16:02;13.80;60.60
1614;DHT22;800;48.824;9.346;2023-12-29T01:18:28;14.00;60.20
1614;DHT22;800;48.824;9.346;2023-12-29T01:20:53;13.80;59.90
1614;DHT22;800;48.824;9.346;2023-12-29T01:23:19;13.70;59.80
1614;DHT22;800;48.824;9.346;2023-12-29T01:25:44;13.80;60.20
1614;DHT22;800;48.824;9.346;2023-12-29T01:28:11;13.60;59.80
1614;DHT22;800;48.824;9.346;2023-12-29T01:30:36;13.60;60.20
1614;DHT22;800;48.824;9.346;2023-12-29T01:33:02;13.50;60.20
1614;DHT22;800;48.824;9.346;2023-12-29T01:35:27;13.40;60.40
1614;DHT22;800;48.824;9.346;2023-12-29T01:37:53;13.40;60.30
1614;DHT22;800;48.824;9.346;2023-12-29T01:40:21;13.50;60.10
1614;DHT22;800;48.824;9.346;2023-12-29T01:42:46;13.60;59.80
1614;DHT22;800;48.824;9.346;2023-12-29T01:45:22;13.70;59.30
1614;DHT22;800;48.824;9.346;2023-12-29T01:47:51;13.70;59.40
1614;DHT22;800;48.824;9.346;2023-12-29T01:50:19;13.60;59.30
1614;DHT22;800;48.824;9.346;2023-12-29T01:52:46;13.50;59.60
1614;DHT22;800;48.824;9.346;2023-12-29T01:55:17;13.80;59.90
1614;DHT22;800;48.824;9.346;2023-12-29T01:57:43;13.70;59.40
1614;DHT22;800;48.824;9.346;2023-12-29T02:00:11;13.70;59.70
1614;DHT22;800;48.824;9.346;2023-12-29T02:02:37;13.70;59.60
1614;DHT22;800;48.824;9.346;2023-12-29T02:05:02;13.70;59.60
1614;DHT22;800;48.824;9.346;2023-12-29T02:07:28;13.60;59.80
1614;DHT22;800;48.824;9.346;2023-12-29T02:09:57;13.40;60.10
1614;DHT22;800;48.824;9.346;2023-12-29T02:12:23;13.50;60.20
1614;DHT22;800;48.824;9.346;2023-12-29T02:14:48;13.60;60.10
1614;DHT22;800;48.824;9.346;2023-12-29T02:17:21;13.70;60.10
1614;DHT22;800;48.824;9.346;2023-12-29T02:19:48;13.70;59.70
1614;DHT22;800;48.824;9.346;2023-12-29T02:22:15;13.60;60.00
1614;DHT22;800;48.824;9.346;2023-12-29T02:24:45;13.70;60.00
1614;DHT22;800;48.824;9.346;2023-12-29T02:30:00;13.80;59.80
1614;DHT22;800;48.824;9.346;2023-12-29T02:32:30;13.90;59.70
1614;DHT22;800;48.824;9.346;2023-12-29T02:34:56;13.60;59.50
1614;DHT22;800;48.824;9.346;2023-12-29T02:37:23;13.70;60.40
1614;DHT22;800;48.824;9.346;2023-12-29T02:39:49;13.60;60.00
1614;DHT22;800;48.824;9.346;2023-12-29T02:42:15;13.70;60.10
1614;DHT22;800;48.824;9.346;2023-12-29T02:44:41;13.90;59.70
1614;DHT22;800;48.824;9.346;2023-12-29T02:47:07;13.70;60.00
1614;DHT22;800;48.824;9.346;2023-12-29T02:49:32;13.50;59.90
1614;DHT22;800;48.824;9.346;2023-12-29T02:51:58;13.50;60.40
1614;DHT22;800;48.824;9.346;2023-12-29T02:54:23;13.30;60.70
1614;DHT22;800;48.824;9.346;2023-12-29T02:56:49;13.60;60.70
1614;DHT22;800;48.824;9.346;2023-12-29T02:59:14;13.90;60.00
1614;DHT22;800;48.824;9.346;2023-12-29T03:01:40;13.80;59.70
1614;DHT22;800;48.824;9.346;2023-12-29T03:04:05;13.70;59.80
1614;DHT22;800;48.824;9.346;2023-12-29T03:06:31;13.60;60.20
1614;DHT22;800;48.824;9.346;2023-12-29T03:08:57;13.50;61.00
1614;DHT22;800;48.824;9.346;2023-12-29T03:11:22;13.50;61.40
1614;DHT22;800;48.824;9.346;2023-12-29T03:13:48;13.50;61.20
1614;DHT22;800;48.824;9.346;2023-12-29T03:16:13;13.50;61.80
1614;DHT22;800;48.824;9.346;2023-12-29T03:18:39;13.70;61.50
1614;DHT22;800;48.824;9.346;2023-12-29T03:21:06;13.40;61.60
1614;DHT22;800;48.824;9.346;2023-12-29T03:23:32;13.40;62.40
1614;DHT22;800;48.824;9.346;2023-12-29T03:25:58;13.60;62.50
1614;DHT22;800;48.824;9.346;2023-12-29T03:28:24;13.60;62.40
1614;DHT22;800;48.824;9.346;2023-12-29T03:30:49;13.40;62.80
1614;DHT22;800;48.824;9.346;2023-12-29T03:33:15;13.60;63.10
1614;DHT22;800;48.824;9.346;2023-12-29T03:35:40;13.60;62.90
1614;DHT22;800;48.824;9.346;2023-12-29T03:38:06;13.40;62.80
1614;DHT22;800;48.824;9.346;2023-12-29T03:40:32;13.40;63.30
1614;DHT22;800;48.824;9.346;2023-12-29T03:42:57;13.30;63.60
1614;DHT22;800;48.824;9.346;2023-12-29T03:45:24;13.50;64.10
1614;DHT22;800;48.824;9.346;2023-12-29T03:47:49;13.60;63.60
1614;DHT22;800;48.824;9.346;2023-12-29T03:50:15;13.60;63.50
1614;DHT22;800;48.824;9.346;2023-12-29T03:52:40;13.50;63.90
1614;DHT22;800;48.824;9.346;2023-12-29T03:55:06;13.40;64.10
1614;DHT22;800;48.824;9.346;2023-12-29T03:57:32;13.20;64.30
1614;DHT22;800;48.824;9.346;2023-12-29T03:59:57;13.10;65.20
1614;DHT22;800;48.824;9.346;2023-12-29T04:02:23;13.10;65.70
1614;DHT22;800;48.824;9.346;2023-12-29T04:04:48;13.20;65.50
1614;DHT22;800;48.824;9.346;2023-12-29T04:07:14;13.20;65.50
1614;DHT22;800;48.824;9.346;2023-12-29T04:09:39;13.20;65.60
1614;DHT22;800;48.824;9.346;2023-12-29T04:12:05;13.10;65.60
1614;DHT22;800;48.824;9.346;2023-12-29T04:14:31;13.30;65.50
1614;DHT22;800;48.824;9.346;2023-12-29T04:16:56;13.30;65.40
1614;DHT22;800;48.824;9.346;2023-12-29T04:19:22;13.30;65.60
1614;DHT22;800;48.824;9.346;2023-12-29T04:21:47;13.30;65.30
1614;DHT22;800;48.824;9.346;2023-12-29T04:24:13;13.50;65.50
1614;DHT22;800;48.824;9.346;2023-12-29T04:26:38;13.60;65.00
1614;DHT22;800;48.824;9.346;2023-12-29T04:29:04;13.40;65.00
1614;DHT22;800;48.824;9.346;2023-12-29T04:31:29;13.50;65.20
1614;DHT22;800;48.824;9.346;2023-12-29T04:33:55;13.60;65.10
1614;DHT22;800;48.824;9.346;2023-12-29T04:36:20;13.70;64.90
1614;DHT22;800;48.824;9.346;2023-12-29T04:38:46;13.40;65.10
1614;DHT22;800;48.824;9.346;2023-12-29T04:41:12;13.50;65.50
1614;DHT22;800;48.824;9.346;2023-12-29T04:43:38;13.50;65.20
1614;DHT22;800;48.824;9.346;2023-12-29T04:46:04;13.40;65.50
1614;DHT22;800;48.824;9.346;2023-12-29T04:48:29;13.40;65.70
1614;DHT22;800;48.824;9.346;2023-12-29T04:50:55;13.40;66.40
1614;DHT22;800;48.824;9.346;2023-12-29T04:53:20;13.50;66.70
1614;DHT22;800;48.824;9.346;2023-12-29T04:55:46;13.50;65.90
1614;DHT22;800;48.824;9.346;2023-12-29T04:58:11;13.50;66.10
1614;DHT22;800;48.824;9.346;2023-12-29T05:00:37;13.60;65.70
1614;DHT22;800;48.824;9.346;2023-12-29T05:03:03;13.70;65.90
1614;DHT22;800;48.824;9.346;2023-12-29T05:05:28;13.50;65.90
1614;DHT22;800;48.824;9.346;2023-12-29T05:07:54;13.50;66.20
1614;DHT22;800;48.824;9.346;2023-12-29T05:10:19;13.50;66.20
1614;DHT22;800;48.824;9.346;2023-12-29T05:12:45;13.40;66.40
1614;DHT22;800;48.824;9.346;2023-12-29T05:15:10;13.60;66.60
1614;DHT22;800;48.824;9.346;2023-12-29T05:17:36;13.80;66.00
1614;DHT22;800;48.824;9.346;2023-12-29T05:20:02;13.90;65.50
1614;DHT22;800;48.824;9.346;2023-12-29T05:22:28;13.90;65.30
1614;DHT22;800;48.824;9.346;2023-12-29T05:24:54;13.90;65.00
1614;DHT22;800;48.824;9.346;2023-12-29T05:27:23;13.90;65.20
1614;DHT22;800;48.824;9.346;2023-12-29T05:29:48;14.00;65.70
1614;DHT22;800;48.824;9.346;2023-12-29T05:32:14;13.80;66.10
1614;DHT22;800;48.824;9.346;2023-12-29T05:34:39;13.80;66.70
1614;DHT22;800;48.824;9.346;2023-12-29T05:37:05;13.90;67.20
1614;DHT22;800;48.824;9.346;2023-12-29T05:39:30;13.80;67.00
1614;DHT22;800;48.824;9.346;2023-12-29T05:41:56;13.70;67.90
1614;DHT22;800;48.824;9.346;2023-12-29T05:44:22;13.70;67.70
1614;DHT22;800;48.824;9.346;2023-12-29T05:46:48;13.70;68.00
1614;DHT22;800;48.824;9.346;2023-12-29T05:49:13;13.60;68.50
1614;DHT22;800;48.824;9.346;2023-12-29T05:51:39;13.60;68.90
1614;DHT22;800;48.824;9.346;2023-12-29T05:54:04;13.60;68.70
1614;DHT22;800;48.824;9.346;2023-12-29T05:56:31;13.60;68.80
1614;DHT22;800;48.824;9.346;2023-12-29T05:58:56;13.80;68.80
1614;DHT22;800;48.824;9.346;2023-12-29T06:01:22;13.80;68.10
1614;DHT22;800;48.824;9.346;2023-12-29T06:03:47;13.80;68.30
1614;DHT22;800;48.824;9.346;2023-12-29T06:06:13;14.10;67.90
1614;DHT22;800;48.824;9.346;2023-12-29T06:08:42;14.30;67.30
1614;DHT22;800;48.824;9.346;2023-12-29T06:11:07;14.40;67.20
1614;DHT22;800;48.824;9.346;2023-12-29T06:13:33;14.50;66.80
1614;DHT22;800;48.824;9.346;2023-12-29T06:15:59;14.40;66.90
1614;DHT22;800;48.824;9.346;2023-12-29T06:18:24;14.40;67.10
1614;DHT22;800;48.824;9.346;2023-12-29T06:20:50;14.30;67.90
1614;DHT22;800;48.824;9.346;2023-12-29T06:23:16;14.20;67.70
1614;DHT22;800;48.824;9.346;2023-12-29T06:25:42;14.10;68.30
1614;DHT22;800;48.824;9.346;2023-12-29T06:28:08;14.10;69.50
1614;DHT22;800;48.824;9.346;2023-12-29T06:30:34;13.80;69.10
1614;DHT22;800;48.824;9.346;2023-12-29T06:32:59;13.80;68.80
1614;DHT22;800;48.824;9.346;2023-12-29T06:35:25;13.80;69.10
1614;DHT22;800;48.824;9.346;2023-12-29T06:37:50;13.70;69.20
1614;DHT22;800;48.824;9.346;2023-12-29T06:40:17;13.90;68.90
1614;DHT22;800;48.824;9.346;2023-12-29T06:42:42;14.10;67.90
1614;DHT22;800;48.824;9.346;2023-12-29T06:45:08;14.10;67.60
1614;DHT22;800;48.824;9.346;2023-12-29T06:47:34;13.80;68.10
1614;DHT22;800;48.824;9.346;2023-12-29T06:49:59;13.90;68.50
1614;DHT22;800;48.824;9.346;2023-12-29T06:52:25;14.00;67.80
1614;DHT22;800;48.824;9.346;2023-12-29T06:54:52;13.90;68.00
1614;DHT22;800;48.824;9.346;2023-12-29T06:57:17;13.50;68.90
1614;DHT22;800;48.824;9.346;2023-12-29T06:59:43;13.50;69.80
1614;DHT22;800;48.824;9.346;2023-12-29T07:02:08;13.40;70.50
1614;DHT22;800;48.824;9.346;2023-12-29T07:04:34;13.40;70.70
1614;DHT22;800;48.824;9.346;2023-12-29T07:07:00;13.40;70.80
1614;DHT22;800;48.824;9.346;2023-12-29T07:09:27;13.40;70.90
1614;DHT22;800;48.824;9.346;2023-12-29T07:11:52;13.10;71.80
1614;DHT22;800;48.824;9.346;2023-12-29T07:14:18;13.10;72.30
1614;DHT22;800;48.824;9.346;2023-12-29T07:16:44;13.10;72.30
1614;DHT22;800;48.824;9.346;2023-12-29T07:19:09;13.00;72.70
1614;DHT22;800;48.824;9.346;2023-12-29T07:21:35;13.10;72.90
1614;DHT22;800;48.824;9.346;2023-12-29T07:24:01;13.10;72.90
1614;DHT22;800;48.824;9.346;2023-12-29T07:26:26;13.20;73.00
1614;DHT22;800;48.824;9.346;2023-12-29T07:28:52;13.00;72.80
1614;DHT22;800;48.824;9.346;2023-12-29T07:31:21;13.10;73.40
1614;DHT22;800;48.824;9.346;2023-12-29T07:33:48;13.10;73.10
1614;DHT22;800;48.824;9.346;2023-12-29T07:36:14;13.30;72.60
1614;DHT22;800;48.824;9.346;2023-12-29T07:38:39;13.20;72.50
1614;DHT22;800;48.824;9.346;2023-12-29T07:41:05;13.10;72.60
1614;DHT22;800;48.824;9.346;2023-12-29T07:43:31;13.00;73.70
1614;DHT22;800;48.824;9.346;2023-12-29T07:45:57;13.20;73.60
1614;DHT22;800;48.824;9.346;2023-12-29T07:48:23;13.30;72.40
1614;DHT22;800;48.824;9.346;2023-12-29T07:50:48;13.50;71.80
1614;DHT22;800;48.824;9.346;2023-12-29T07:53:14;13.60;71.50
1614;DHT22;800;48.824;9.346;2023-12-29T07:55:40;13.70;71.10
1614;DHT22;800;48.824;9.346;2023-12-29T07:58:06;13.60;70.90
1614;DHT22;800;48.824;9.346;2023-12-29T08:00:31;13.50;71.50
1614;DHT22;800;48.824;9.346;2023-12-29T08:02:57;13.50;71.50
1614;DHT22;800;48.824;9.346;2023-12-29T08:05:24;13.40;71.60
1614;DHT22;800;48.824;9.346;2023-12-29T08:07:50;13.60;71.70
1614;DHT22;800;48.824;9.346;2023-12-29T08:10:15;13.50;71.80
1614;DHT22;800;48.824;9.346;2023-12-29T08:12:41;13.50;72.00
1614;DHT22;800;48.824;9.346;2023-12-29T08:15:07;13.60;71.80
1614;DHT22;800;48.824;9.346;2023-12-29T08:17:32;13.70;71.80
1614;DHT22;800;48.824;9.346;2023-12-29T08:19:58;13.70;71.30
1614;DHT22;800;48.824;9.346;2023-12-29T08:22:24;13.60;71.60
1614;DHT22;800;48.824;9.346;2023-12-29T08:24:49;13.60;72.20
1614;DHT22;800;48.824;9.346;2023-12-29T08:27:22;13.50;71.60
1614;DHT22;800;48.824;9.346;2023-12-29T08:29:48;13.50;71.80
1614;DHT22;800;48.824;9.346;2023-12-29T08:32:14;13.50;71.60
1614;DHT22;800;48.824;9.346;2023-12-29T08:34:39;13.50;71.80
1614;DHT22;800;48.824;9.346;2023-12-29T08:37:05;13.50;71.60
1614;DHT22;800;48.824;9.346;2023-12-29T08:39:31;13.40;72.20
1614;DHT22;800;48.824;9.346;2023-12-29T08:41:56;13.30;72.40
1614;DHT22;800;48.824;9.346;2023-12-29T08:44:22;13.30;72.50
1614;DHT22;800;48.824;9.346;2023-12-29T08:46:48;13.40;72.30
1614;DHT22;800;48.824;9.346;2023-12-29T08:49:13;13.40;72.40
1614;DHT22;800;48.824;9.346;2023-12-29T08:51:39;13.40;72.00
1614;DHT22;800;48.824;9.346;2023-12-29T08:54:05;13.40;71.80
1614;DHT22;800;48.824;9.346;2023-12-29T08:56:30;13.40;72.50
1614;DHT22;800;48.824;9.346;2023-12-29T08:58:56;13.30;72.70
1614;DHT22;800;48.824;9.346;2023-12-29T09:01:21;13.60;72.90
1614;DHT22;800;48.824;9.346;2023-12-29T09:03:47;13.70;72.30
1614;DHT22;800;48.824;9.346;2023-12-29T09:06:12;13.80;71.80
1614;DHT22;800;48.824;9.346;2023-12-29T09:08:39;13.90;70.90
1614;DHT22;800;48.824;9.346;2023-12-29T09:11:05;14.00;70.50
1614;DHT22;800;48.824;9.346;2023-12-29T09:13:30;14.10;70.50
1614;DHT22;800;48.824;9.346;2023-12-29T09:15:58;14.10;70.00
1614;DHT22;800;48.824;9.346;2023-12-29T09:18:24;14.20;69.80
1614;DHT22;800;48.824;9.346;2023-12-29T09:20:50;14.10;69.30
1614;DHT22;800;48.824;9.346;2023-12-29T09:23:15;14.20;69.50
1614;DHT22;800;48.824;9.346;2023-12-29T09:25:41;14.10;68.90
1614;DHT22;800;48.824;9.346;2023-12-29T09:28:07;13.90;69.00
1614;DHT22;800;48.824;9.346;2023-12-29T09:30:32;14.10;69.60
1614;DHT22;800;48.824;9.346;2023-12-29T09:32:58;13.90;69.20
1614;DHT22;800;48.824;9.346;2023-12-29T09:35:24;13.90;69.60
1614;DHT22;800;48.824;9.346;2023-12-29T09:37:50;13.90;69.70
1614;DHT22;800;48.824;9.346;2023-12-29T09:40:16;14.00;69.60
1614;DHT22;800;48.824;9.346;2023-12-29T09:42:43;14.10;69.10
1614;DHT22;800;48.824;9.346;2023-12-29T09:45:11;14.20;69.20
1614;DHT22;800;48.824;9.346;2023-12-29T09:47:42;14.40;68.60
1614;DHT22;800;48.824;9.346;2023-12-29T09:50:11;14.60;67.70
1614;DHT22;800;48.824;9.346;2023-12-29T09:52:38;14.50;67.20
1614;DHT22;800;48.824;9.346;2023-12-29T09:55:05;14.40;67.70
1614;DHT22;800;48.824;9.346;2023-12-29T09:57:33;14.30;67.70
1614;DHT22;800;48.824;9.346;2023-12-29T09:59:59;14.30;67.30
1614;DHT22;800;48.824;9.346;2023-12-29T10:02:25;14.50;67.40
1614;DHT22;800;48.824;9.346;2023-12-29T10:04:50;14.80;67.00
1614;DHT22;800;48.824;9.346;2023-12-29T10:07:26;14.90;66.00
1614;DHT22;800;48.824;9.346;2023-12-29T10:09:57;14.90;65.40
1614;DHT22;800;48.824;9.346;2023-12-29T10:12:24;15.20;65.50
1614;DHT22;800;48.824;9.346;2023-12-29T10:15:12;15.40;64.70
1614;DHT22;800;48.824;9.346;2023-12-29T10:18:01;15.60;63.70
1614;DHT22;800;48.824;9.346;2023-12-29T10:20:49;15.60;62.90
1614;DHT22;800;48.824;9.346;2023-12-29T10:23:22;15.50;62.40
1614;DHT22;800;48.824;9.346;2023-12-29T10:25:50;15.80;62.40
1614;DHT22;800;48.824;9.346;2023-12-29T10:28:17;16.10;61.60
1614;DHT22;800;48.824;9.346;2023-12-29T10:30:45;16.50;60.90
1614;DHT22;800;48.824;9.346;2023-12-29T10:33:19;17.00;60.00
1614;DHT22;800;48.824;9.346;2023-12-29T10:35:57;17.40;58.90
1614;DHT22;800;48.824;9.346;2023-12-29T10:38:24;17.50;58.10
1614;DHT22;800;48.824;9.346;2023-12-29T10:40:49;17.60;57.90
1614;DHT22;800;48.824;9.346;2023-12-29T10:43:22;17.80;57.20
1614;DHT22;800;48.824;9.346;2023-12-29T10:45:47;18.00;56.90
1614;DHT22;800;48.824;9.346;2023-12-29T10:48:21;18.00;56.20
1614;DHT22;800;48.824;9.346;2023-12-29T10:50:48;18.10;56.20
1614;DHT22;800;48.824;9.346;2023-12-29T10:53:14;18.10;55.50
1614;DHT22;800;48.824;9.346;2023-12-29T10:55:42;18.00;55.20
1614;DHT22;800;48.824;9.346;2023-12-29T10:58:08;18.10;54.80
1614;DHT22;800;48.824;9.346;2023-12-29T11:00:34;17.70;55.00
1614;DHT22;800;48.824;9.346;2023-12-29T11:02:59;17.60;55.00
1614;DHT22;800;48.824;9.346;2023-12-29T11:05:28;17.40;55.30
1614;DHT22;800;48.824;9.346;2023-12-29T11:07:54;17.40;55.50
1614;DHT22;800;48.824;9.346;2023-12-29T11:10:21;17.70;55.60
1614;DHT22;800;48.824;9.346;2023-12-29T11:12:47;18.00;54.60
1614;DHT22;800;48.824;9.346;2023-12-29T11:15:14;18.30;54.00
1614;DHT22;800;48.824;9.346;2023-12-29T11:17:42;18.40;53.60
1614;DHT22;800;48.824;9.346;2023-12-29T11:20:15;18.40;53.00
1614;DHT22;800;48.824;9.346;2023-12-29T11:22:43;18.10;53.10
1614;DHT22;800;48.824;9.346;2023-12-29T11:25:10;17.90;53.90
1614;DHT22;800;48.824;9.346;2023-12-29T11:27:37;17.90;53.60
1614;DHT22;800;48.824;9.346;2023-12-29T11:30:04;17.60;53.60
1614;DHT22;800;48.824;9.346;2023-12-29T11:32:58;17.50;53.90
1614;DHT22;800;48.824;9.346;2023-12-29T11:35:42;17.60;53.80
1614;DHT22;800;48.824;9.346;2023-12-29T11:43:26;17.60;53.80
1614;DHT22;800;48.824;9.346;2023-12-29T11:45:52;17.40;53.90
1614;DHT22;800;48.824;9.346;2023-12-29T11:48:52;17.30;53.50
1614;DHT22;800;48.824;9.346;2023-12-29T11:51:32;17.40;53.70
1614;DHT22;800;48.824;9.346;2023-12-29T11:53:58;17.20;53.60
1614;DHT22;800;48.824;9.346;2023-12-29T11:56:24;17.00;54.30
1614;DHT22;800;48.824;9.346;2023-12-29T11:58:55;17.00;54.50
1614;DHT22;800;48.824;9.346;2023-12-29T12:01:36;17.20;54.40
1614;DHT22;800;48.824;9.346;2023-12-29T12:04:01;17.00;54.00
1614;DHT22;800;48.824;9.346;2023-12-29T12:06:37;16.80;54.40
1614;DHT22;800;48.824;9.346;2023-12-29T12:09:24;17.00;54.90
1614;DHT22;800;48.824;9.346;2023-12-29T12:11:52;17.00;54.70
1614;DHT22;800;48.824;9.346;2023-12-29T12:14:46;17.00;54.80
1614;DHT22;800;48.824;9.346;2023-12-29T12:17:12;16.90;54.50
1614;DHT22;800;48.824;9.346;2023-12-29T12:19:53;16.90;54.60
1614;DHT22;800;48.824;9.346;2023-12-29T12:22:23;17.00;54.60
1614;DHT22;800;48.824;9.346;2023-12-29T12:24:56;17.10;54.50
1614;DHT22;800;48.824;9.346;2023-12-29T12:27:24;17.20;54.00
1614;DHT22;800;48.824;9.346;2023-12-29T12:29:53;16.90;53.60
1614;DHT22;800;48.824;9.346;2023-12-29T12:32:22;17.10;53.80
1614;DHT22;800;48.824;9.346;2023-12-29T12:34:47;17.20;53.60
1614;DHT22;800;48.824;9.346;2023-12-29T12:37:19;16.90;53.00
1614;DHT22;800;48.824;9.346;2023-12-29T12:39:44;16.40;53.10
1614;DHT22;800;48.824;9.346;2023-12-29T12:42:10;16.40;53.70
1614;DHT22;800;48.824;9.346;2023-12-29T12:44:41;16.30;53.50
1614;DHT22;800;48.824;9.346;2023-12-29T12:47:09;16.50;53.90
1614;DHT22;800;48.824;9.346;2023-12-29T12:49:39;16.70;53.60
1614;DHT22;800;48.824;9.346;2023-12-29T12:52:05;17.00;53.00
1614;DHT22;800;48.824;9.346;2023-12-29T12:54:31;17.00;52.40
1614;DHT22;800;48.824;9.346;2023-12-29T12:56:57;16.80;52.30
1614;DHT22;800;48.824;9.346;2023-12-29T12:59:23;17.00;52.80
1614;DHT22;800;48.824;9.346;2023-12-29T13:01:48;17.20;52.80
1614;DHT22;800;48.824;9.346;2023-12-29T13:04:14;17.40;52.60
1614;DHT22;800;48.824;9.346;2023-12-29T13:06:41;17.50;52.50
1614;DHT22;800;48.824;9.346;2023-12-29T13:09:09;17.50;52.10
1614;DHT22;800;48.824;9.346;2023-12-29T13:11:37;17.30;52.30
1614;DHT22;800;48.824;9.346;2023-12-29T13:14:03;17.10;52.90
1614;DHT22;800;48.824;9.346;2023-12-29T13:16:37;17.10;53.40
1614;DHT22;800;48.824;9.346;2023-12-29T13:19:22;17.40;53.20
1614;DHT22;800;48.824;9.346;2023-12-29T13:21:51;17.50;53.00
1614;DHT22;800;48.824;9.346;2023-12-29T13:24:20;17.20;52.40
1614;DHT22;800;48.824;9.346;2023-12-29T13:26:47;17.10;52.90
1614;DHT22;800;48.824;9.346;2023-12-29T13:29:18;17.00;53.50
1614;DHT22;800;48.824;9.346;2023-12-29T13:31:46;16.80;53.50
1614;DHT22;800;48.824;9.346;2023-12-29T13:34:23;16.80;52.80
1614;DHT22;800;48.824;9.346;2023-12-29T13:39:37;16.90;53.00
1614;DHT22;800;48.824;9.346;2023-12-29T13:42:05;16.90;52.80
1614;DHT22;800;48.824;9.346;2023-12-29T13:44:33;16.70;52.80
1614;DHT22;800;48.824;9.346;2023-12-29T13:46:59;16.60;53.20
1614;DHT22;800;48.824;9.346;2023-12-29T13:49:25;16.60;53.10
1614;DHT22;800;48.824;9.346;2023-12-29T13:51:51;16.70;53.10
1614;DHT22;800;48.824;9.346;2023-12-29T13:54:17;16.90;53.00
1614;DHT22;800;48.824;9.346;2023-12-29T13:56:55;16.70;52.10
1614;DHT22;800;48.824;9.346;2023-12-29T13:59:33;16.30;51.80
1614;DHT22;800;48.824;9.346;2023-12-29T14:02:02;16.20;51.60
1614;DHT22;800;48.824;9.346;2023-12-29T14:04:28;16.00;51.70
1614;DHT22;800;48.824;9.346;2023-12-29T14:06:59;15.90;51.90
1614;DHT22;800;48.824;9.346;2023-12-29T14:09:26;15.70;52.00
1614;DHT22;800;48.824;9.346;2023-12-29T14:11:52;15.80;52.40
1614;DHT22;800;48.824;9.346;2023-12-29T14:14:25;15.60;52.20
1614;DHT22;800;48.824;9.346;2023-12-29T14:16:52;15.50;52.40
1614;DHT22;800;48.824;9.346;2023-12-29T14:19:18;15.50;52.40
1614;DHT22;800;48.824;9.346;2023-12-29T14:21:46;15.60;52.50
1614;DHT22;800;48.824;9.346;2023-12-29T14:24:15;15.80;52.40
1614;DHT22;800;48.824;9.346;2023-12-29T14:29:11;15.80;51.30
1614;DHT22;800;48.824;9.346;2023-12-29T14:31:40;15.80;51.40
1614;DHT22;800;48.824;9.346;2023-12-29T14:34:07;16.00;51.00
1614;DHT22;800;48.824;9.346;2023-12-29T14:36:34;15.90;50.70
1614;DHT22;800;48.824;9.346;2023-12-29T14:38:59;16.00;51.10
1614;DHT22;800;48.824;9.346;2023-12-29T14:41:25;15.90;51.10
1614;DHT22;800;48.824;9.346;2023-12-29T14:43:51;16.10;51.30
1614;DHT22;800;48.824;9.346;2023-12-29T14:46:17;16.20;51.20
1614;DHT22;800;48.824;9.346;2023-12-29T14:48:43;16.40;51.00
1614;DHT22;800;48.824;9.346;2023-12-29T14:51:09;16.40;50.80
1614;DHT22;800;48.824;9.346;2023-12-29T14:53:34;16.50;50.80
1614;DHT22;800;48.824;9.346;2023-12-29T14:56:00;16.50;50.70
1614;DHT22;800;48.824;9.346;2023-12-29T14:58:26;16.40;51.00
1614;DHT22;800;48.824;9.346;2023-12-29T15:00:51;16.30;50.90
1614;DHT22;800;48.824;9.346;2023-12-29T15:03:17;16.30;51.20
1614;DHT22;800;48.824;9.346;2023-12-29T15:05:44;16.60;50.90
1614;DHT22;800;48.824;9.346;2023-12-29T15:08:10;16.50;51.00
1614;DHT22;800;48.824;9.346;2023-12-29T15:10:35;16.50;50.80
1614;DHT22;800;48.824;9.346;2023-12-29T15:13:01;16.60;50.80
1614;DHT22;800;48.824;9.346;2023-12-29T15:15:27;16.80;50.70
1614;DHT22;800;48.824;9.346;2023-12-29T15:17:53;16.60;50.10
1614;DHT22;800;48.824;9.346;2023-12-29T15:20:18;16.50;50.50
1614;DHT22;800;48.824;9.346;2023-12-29T15:22:44;16.50;50.20
1614;DHT22;800;48.824;9.346;2023-12-29T15:25:10;16.30;50.60
1614;DHT22;800;48.824;9.346;2023-12-29T15:27:36;16.30;50.40
1614;DHT22;800;48.824;9.346;2023-12-29T15:30:02;16.20;50.50
1614;DHT22;800;48.824;9.346;2023-12-29T15:32:28;16.10;51.00
1614;DHT22;800;48.824;9.346;2023-12-29T15:34:53;16.00;50.90
1614;DHT22;800;48.824;9.346;2023-12-29T15:37:19;15.90;51.20
1614;DHT22;800;48.824;9.346;2023-12-29T15:39:44;15.90;51.10
1614;DHT22;800;48.824;9.346;2023-12-29T15:42:10;15.70;50.70
1614;DHT22;800;48.824;9.346;2023-12-29T15:44:36;15.80;50.60
1614;DHT22;800;48.824;9.346;2023-12-29T15:47:01;15.70;50.70
1614;DHT22;800;48.824;9.346;2023-12-29T15:49:27;15.60;50.90
1614;DHT22;800;48.824;9.346;2023-12-29T15:51:52;15.70;51.00
1614;DHT22;800;48.824;9.346;2023-12-29T15:54:18;15.80;50.80
1614;DHT22;800;48.824;9.346;2023-12-29T15:56:43;15.80;50.60
1614;DHT22;800;48.824;9.346;2023-12-29T15:59:09;15.50;50.60
1614;DHT22;800;48.824;9.346;2023-12-29T16:01:34;15.50;51.00
1614;DHT22;800;48.824;9.346;2023-12-29T16:04:00;15.90;51.00
1614;DHT22;800;48.824;9.346;2023-12-29T16:06:27;16.20;50.50
1614;DHT22;800;48.824;9.346;2023-12-29T16:08:53;16.40;50.40
1614;DHT22;800;48.824;9.346;2023-12-29T16:11:31;16.40;50.10
1614;DHT22;800;48.824;9.346;2023-12-29T16:13:57;16.40;50.10
1614;DHT22;800;48.824;9.346;2023-12-29T16:16:24;16.30;49.90
1614;DHT22;800;48.824;9.346;2023-12-29T16:18:53;16.30;49.60
1614;DHT22;800;48.824;9.346;2023-12-29T16:21:19;16.20;49.40
1614;DHT22;800;48.824;9.346;2023-12-29T16:23:44;16.30;49.50
1614;DHT22;800;48.824;9.346;2023-12-29T16:26:10;16.40;49.20
1614;DHT22;800;48.824;9.346;2023-12-29T16:28:36;16.30;49.00